sensor_id;sensor_type;location;lat;lon;timestamp;P1;durP1;ratioP1;P2;durP2;ratioP2
42768;SDS011;28423;60.010;30.406;2022-08-14T00:01:59;7.68;;;3.00;;
42768;SDS011;28423;60.010;30.406;2022-08-14T00:04:25;10.15;;;3.33;;
42768;SDS011;28423;60.010;30.406;2022-08-14T00:06:51;9.45;;;4.13;;
42768;SDS011;28423;60.010;30.406;2022-08-14T00:09:17;9.93;;;3.10;;
42768;SDS011;28423;60.010;30.406;2022-08-14T00:11:43;10.57;;;4.32;;
42768;SDS011;28423;60.010;30.406;2022-08-14T00:14:08;6.95;;;3.00;;
42768;SDS011;28423;60.010;30.406;2022-08-14T00:16:34;4.00;;;2.88;;
42768;SDS011;28423;60.010;30.406;2022-08-14T00:19:00;7.45;;;3.13;;
42768;SDS011;28423;60.010;30.406;2022-08-14T00:21:26;5.22;;;3.00;;
42768;SDS011;28423;60.010;30.406;2022-08-14T00:23:52;7.00;;;3.22;;
42768;SDS011;28423;60.010;30.406;2022-08-14T00:26:18;6.93;;;3.45;;
42768;SDS011;28423;60.010;30.406;2022-08-14T00:28:44;7.57;;;3.75;;
42768;SDS011;28423;60.010;30.406;2022-08-14T00:31:09;6.43;;;4.10;;
42768;SDS011;28423;60.010;30.406;2022-08-14T00:33:36;7.57;;;3.75;;
42768;SDS011;28423;60.010;30.406;2022-08-14T00:36:02;8.35;;;3.83;;
42768;SDS011;28423;60.010;30.406;2022-08-14T00:38:28;8.35;;;3.38;;
42768;SDS011;28423;60.010;30.406;2022-08-14T00:40:53;8.38;;;3.33;;
42768;SDS011;28423;60.010;30.406;2022-08-14T00:43:19;7.93;;;3.72;;
42768;SDS011;28423;60.010;30.406;2022-08-14T00:45:45;7.07;;;3.75;;
42768;SDS011;28423;60.010;30.406;2022-08-14T00:48:11;5.70;;;3.10;;
42768;SDS011;28423;60.010;30.406;2022-08-14T00:50:37;5.88;;;3.58;;
42768;SDS011;28423;60.010;30.406;2022-08-14T00:53:03;5.43;;;3.28;;
42768;SDS011;28423;60.010;30.406;2022-08-14T00:55:29;8.48;;;4.00;;
42768;SDS011;28423;60.010;30.406;2022-08-14T00:57:56;9.25;;;4.43;;
42768;SDS011;28423;60.010;30.406;2022-08-14T01:00:42;7.85;;;4.82;;
42768;SDS011;28423;60.010;30.406;2022-08-14T01:03:08;9.73;;;4.78;;
42768;SDS011;28423;60.010;30.406;2022-08-14T01:05:34;9.05;;;4.82;;
42768;SDS011;28423;60.010;30.406;2022-08-14T01:08:00;8.00;;;3.97;;
42768;SDS011;28423;60.010;30.406;2022-08-14T01:10:27;8.45;;;4.13;;
42768;SDS011;28423;60.010;30.406;2022-08-14T01:13:15;11.52;;;4.82;;
42768;SDS011;28423;60.010;30.406;2022-08-14T01:16:03;10.15;;;4.32;;
42768;SDS011;28423;60.010;30.406;2022-08-14T01:18:31;9.07;;;4.88;;
42768;SDS011;28423;60.010;30.406;2022-08-14T01:21:15;9.75;;;5.03;;
42768;SDS011;28423;60.010;30.406;2022-08-14T01:23:47;10.27;;;4.88;;
42768;SDS011;28423;60.010;30.406;2022-08-14T01:26:15;7.38;;;5.43;;
42768;SDS011;28423;60.010;30.406;2022-08-14T01:28:45;11.07;;;5.05;;
42768;SDS011;28423;60.010;30.406;2022-08-14T01:31:13;8.43;;;4.70;;
42768;SDS011;28423;60.010;30.406;2022-08-14T01:33:45;8.38;;;4.95;;
42768;SDS011;28423;60.010;30.406;2022-08-14T01:36:13;8.93;;;4.53;;
42768;SDS011;28423;60.010;30.406;2022-08-14T01:38:41;7.15;;;4.38;;
42768;SDS011;28423;60.010;30.406;2022-08-14T01:41:11;11.93;;;5.28;;
42768;SDS011;28423;60.010;30.406;2022-08-14T01:43:42;6.90;;;4.78;;
42768;SDS011;28423;60.010;30.406;2022-08-14T01:46:09;7.88;;;4.90;;
42768;SDS011;28423;60.010;30.406;2022-08-14T01:48:36;8.13;;;4.95;;
42768;SDS011;28423;60.010;30.406;2022-08-14T01:51:04;6.13;;;4.20;;
42768;SDS011;28423;60.010;30.406;2022-08-14T01:53:31;9.88;;;4.38;;
42768;SDS011;28423;60.010;30.406;2022-08-14T01:55:58;8.75;;;5.18;;
42768;SDS011;28423;60.010;30.406;2022-08-14T01:58:24;8.68;;;4.57;;
42768;SDS011;28423;60.010;30.406;2022-08-14T02:00:54;7.22;;;4.75;;
42768;SDS011;28423;60.010;30.406;2022-08-14T02:03:24;10.40;;;4.97;;
42768;SDS011;28423;60.010;30.406;2022-08-14T02:05:53;7.53;;;4.10;;
42768;SDS011;28423;60.010;30.406;2022-08-14T02:08:22;11.25;;;5.22;;
42768;SDS011;28423;60.010;30.406;2022-08-14T02:10:54;8.57;;;5.28;;
42768;SDS011;28423;60.010;30.406;2022-08-14T02:13:45;9.70;;;5.43;;
42768;SDS011;28423;60.010;30.406;2022-08-14T02:16:19;8.90;;;4.80;;
42768;SDS011;28423;60.010;30.406;2022-08-14T02:18:50;12.60;;;5.40;;
42768;SDS011;28423;60.010;30.406;2022-08-14T02:21:17;8.95;;;4.72;;
42768;SDS011;28423;60.010;30.406;2022-08-14T02:23:47;6.80;;;4.78;;
42768;SDS011;28423;60.010;30.406;2022-08-14T02:26:16;8.05;;;4.15;;
42768;SDS011;28423;60.010;30.406;2022-08-14T02:28:43;8.50;;;4.60;;
42768;SDS011;28423;60.010;30.406;2022-08-14T02:31:11;11.13;;;4.70;;
42768;SDS011;28423;60.010;30.406;2022-08-14T02:33:39;8.88;;;3.80;;
42768;SDS011;28423;60.010;30.406;2022-08-14T02:36:06;8.32;;;4.35;;
42768;SDS011;28423;60.010;30.406;2022-08-14T02:38:34;8.07;;;4.18;;
42768;SDS011;28423;60.010;30.406;2022-08-14T02:41:00;5.22;;;3.70;;
42768;SDS011;28423;60.010;30.406;2022-08-14T02:43:26;6.40;;;4.60;;
42768;SDS011;28423;60.010;30.406;2022-08-14T02:45:55;8.68;;;4.57;;
42768;SDS011;28423;60.010;30.406;2022-08-14T02:48:20;6.43;;;4.10;;
42768;SDS011;28423;60.010;30.406;2022-08-14T02:50:46;6.40;;;3.97;;
42768;SDS011;28423;60.010;30.406;2022-08-14T02:53:13;13.88;;;4.20;;
42768;SDS011;28423;60.010;30.406;2022-08-14T02:55:39;7.57;;;3.75;;
42768;SDS011;28423;60.010;30.406;2022-08-14T02:58:05;6.75;;;4.15;;
42768;SDS011;28423;60.010;30.406;2022-08-14T03:00:32;5.72;;;3.92;;
42768;SDS011;28423;60.010;30.406;2022-08-14T03:03:00;6.90;;;4.10;;
42768;SDS011;28423;60.010;30.406;2022-08-14T03:05:27;5.80;;;3.90;;
42768;SDS011;28423;60.010;30.406;2022-08-14T03:08:04;5.35;;;4.32;;
42768;SDS011;28423;60.010;30.406;2022-08-14T03:10:39;5.75;;;4.40;;
42768;SDS011;28423;60.010;30.406;2022-08-14T03:13:05;6.93;;;3.92;;
42768;SDS011;28423;60.010;30.406;2022-08-14T03:15:31;7.13;;;4.32;;
42768;SDS011;28423;60.010;30.406;2022-08-14T03:17:58;7.05;;;4.53;;
42768;SDS011;28423;60.010;30.406;2022-08-14T03:20:27;7.47;;;4.28;;
42768;SDS011;28423;60.010;30.406;2022-08-14T03:22:54;8.05;;;5.15;;
42768;SDS011;28423;60.010;30.406;2022-08-14T03:25:23;7.85;;;4.57;;
42768;SDS011;28423;60.010;30.406;2022-08-14T03:27:49;10.05;;;5.85;;
42768;SDS011;28423;60.010;30.406;2022-08-14T03:30:15;5.57;;;4.53;;
42768;SDS011;28423;60.010;30.406;2022-08-14T03:32:41;7.03;;;6.10;;
42768;SDS011;28423;60.010;30.406;2022-08-14T03:35:07;7.22;;;4.82;;
42768;SDS011;28423;60.010;30.406;2022-08-14T03:37:35;6.20;;;4.55;;
42768;SDS011;28423;60.010;30.406;2022-08-14T03:40:01;5.20;;;4.10;;
42768;SDS011;28423;60.010;30.406;2022-08-14T03:42:28;6.00;;;4.25;;
42768;SDS011;28423;60.010;30.406;2022-08-14T03:44:53;11.32;;;5.32;;
42768;SDS011;28423;60.010;30.406;2022-08-14T03:47:19;6.10;;;4.18;;
42768;SDS011;28423;60.010;30.406;2022-08-14T03:49:44;4.10;;;3.60;;
42768;SDS011;28423;60.010;30.406;2022-08-14T03:52:11;5.30;;;3.88;;
42768;SDS011;28423;60.010;30.406;2022-08-14T03:54:37;6.88;;;4.30;;
42768;SDS011;28423;60.010;30.406;2022-08-14T03:57:03;8.25;;;4.40;;
42768;SDS011;28423;60.010;30.406;2022-08-14T03:59:30;4.97;;;3.60;;
42768;SDS011;28423;60.010;30.406;2022-08-14T04:01:56;8.60;;;3.67;;
42768;SDS011;28423;60.010;30.406;2022-08-14T04:04:22;7.00;;;4.38;;
42768;SDS011;28423;60.010;30.406;2022-08-14T04:06:48;6.43;;;4.18;;
42768;SDS011;28423;60.010;30.406;2022-08-14T04:09:15;6.70;;;4.57;;
42768;SDS011;28423;60.010;30.406;2022-08-14T04:11:41;6.18;;;4.20;;
42768;SDS011;28423;60.010;30.406;2022-08-14T04:14:07;7.30;;;4.53;;
42768;SDS011;28423;60.010;30.406;2022-08-14T04:16:33;6.25;;;4.05;;
42768;SDS011;28423;60.010;30.406;2022-08-14T04:18:59;5.95;;;4.40;;
42768;SDS011;28423;60.010;30.406;2022-08-14T04:21:28;6.28;;;4.53;;
42768;SDS011;28423;60.010;30.406;2022-08-14T04:23:58;5.30;;;4.28;;
42768;SDS011;28423;60.010;30.406;2022-08-14T04:26:26;7.20;;;4.00;;
42768;SDS011;28423;60.010;30.406;2022-08-14T04:28:54;9.95;;;4.18;;
42768;SDS011;28423;60.010;30.406;2022-08-14T04:31:21;5.32;;;3.97;;
42768;SDS011;28423;60.010;30.406;2022-08-14T04:33:47;5.93;;;3.97;;
42768;SDS011;28423;60.010;30.406;2022-08-14T04:36:13;9.00;;;4.45;;
42768;SDS011;28423;60.010;30.406;2022-08-14T04:38:39;5.55;;;4.22;;
42768;SDS011;28423;60.010;30.406;2022-08-14T04:41:24;7.15;;;4.20;;
42768;SDS011;28423;60.010;30.406;2022-08-14T04:44:08;4.70;;;4.13;;
42768;SDS011;28423;60.010;30.406;2022-08-14T04:46:34;8.88;;;3.75;;
42768;SDS011;28423;60.010;30.406;2022-08-14T04:49:00;6.93;;;4.65;;
42768;SDS011;28423;60.010;30.406;2022-08-14T04:51:27;4.55;;;3.88;;
42768;SDS011;28423;60.010;30.406;2022-08-14T04:53:54;5.93;;;3.97;;
42768;SDS011;28423;60.010;30.406;2022-08-14T04:56:24;6.82;;;4.05;;
42768;SDS011;28423;60.010;30.406;2022-08-14T04:58:51;5.18;;;3.65;;
42768;SDS011;28423;60.010;30.406;2022-08-14T05:01:22;7.93;;;4.32;;
42768;SDS011;28423;60.010;30.406;2022-08-14T05:03:48;7.10;;;5.13;;
42768;SDS011;28423;60.010;30.406;2022-08-14T05:06:14;7.75;;;4.00;;
42768;SDS011;28423;60.010;30.406;2022-08-14T05:08:39;6.38;;;3.85;;
42768;SDS011;28423;60.010;30.406;2022-08-14T05:11:07;6.57;;;4.00;;
42768;SDS011;28423;60.010;30.406;2022-08-14T05:13:34;10.07;;;3.95;;
42768;SDS011;28423;60.010;30.406;2022-08-14T05:16:05;6.18;;;3.92;;
42768;SDS011;28423;60.010;30.406;2022-08-14T05:18:34;6.78;;;3.90;;
42768;SDS011;28423;60.010;30.406;2022-08-14T05:21:05;5.18;;;3.78;;
42768;SDS011;28423;60.010;30.406;2022-08-14T05:23:33;4.40;;;3.60;;
42768;SDS011;28423;60.010;30.406;2022-08-14T05:26:00;6.47;;;4.35;;
42768;SDS011;28423;60.010;30.406;2022-08-14T05:28:29;5.70;;;3.38;;
42768;SDS011;28423;60.010;30.406;2022-08-14T05:30:57;4.82;;;3.70;;
42768;SDS011;28423;60.010;30.406;2022-08-14T05:33:25;5.68;;;3.80;;
42768;SDS011;28423;60.010;30.406;2022-08-14T05:35:53;5.45;;;3.10;;
42768;SDS011;28423;60.010;30.406;2022-08-14T05:38:25;4.32;;;3.30;;
42768;SDS011;28423;60.010;30.406;2022-08-14T05:40:54;6.53;;;3.40;;
42768;SDS011;28423;60.010;30.406;2022-08-14T05:43:21;5.85;;;3.70;;
42768;SDS011;28423;60.010;30.406;2022-08-14T05:45:47;7.53;;;3.90;;
42768;SDS011;28423;60.010;30.406;2022-08-14T05:48:13;7.50;;;4.03;;
42768;SDS011;28423;60.010;30.406;2022-08-14T05:50:39;6.50;;;3.83;;
42768;SDS011;28423;60.010;30.406;2022-08-14T05:53:05;5.90;;;3.17;;
42768;SDS011;28423;60.010;30.406;2022-08-14T05:55:31;4.60;;;2.88;;
42768;SDS011;28423;60.010;30.406;2022-08-14T05:57:58;8.75;;;4.10;;
42768;SDS011;28423;60.010;30.406;2022-08-14T06:00:28;8.40;;;4.50;;
42768;SDS011;28423;60.010;30.406;2022-08-14T06:02:55;8.82;;;3.88;;
42768;SDS011;28423;60.010;30.406;2022-08-14T06:05:22;7.53;;;3.65;;
42768;SDS011;28423;60.010;30.406;2022-08-14T06:07:48;5.50;;;3.63;;
42768;SDS011;28423;60.010;30.406;2022-08-14T06:10:13;7.28;;;3.58;;
42768;SDS011;28423;60.010;30.406;2022-08-14T06:12:39;6.15;;;3.58;;
42768;SDS011;28423;60.010;30.406;2022-08-14T06:15:05;7.32;;;2.90;;
42768;SDS011;28423;60.010;30.406;2022-08-14T06:17:41;6.47;;;3.05;;
42768;SDS011;28423;60.010;30.406;2022-08-14T06:20:08;6.68;;;2.97;;
42768;SDS011;28423;60.010;30.406;2022-08-14T06:22:34;4.43;;;3.00;;
42768;SDS011;28423;60.010;30.406;2022-08-14T06:25:00;4.55;;;2.70;;
42768;SDS011;28423;60.010;30.406;2022-08-14T06:27:25;5.30;;;3.20;;
42768;SDS011;28423;60.010;30.406;2022-08-14T06:29:51;8.68;;;3.63;;
42768;SDS011;28423;60.010;30.406;2022-08-14T06:32:16;5.82;;;3.10;;
42768;SDS011;28423;60.010;30.406;2022-08-14T06:34:42;7.15;;;3.65;;
42768;SDS011;28423;60.010;30.406;2022-08-14T06:37:08;6.72;;;3.22;;
42768;SDS011;28423;60.010;30.406;2022-08-14T06:39:34;7.18;;;2.88;;
42768;SDS011;28423;60.010;30.406;2022-08-14T06:41:59;8.07;;;3.95;;
42768;SDS011;28423;60.010;30.406;2022-08-14T06:44:25;14.10;;;8.75;;
42768;SDS011;28423;60.010;30.406;2022-08-14T06:46:52;6.65;;;3.50;;
42768;SDS011;28423;60.010;30.406;2022-08-14T06:49:17;3.65;;;2.70;;
42768;SDS011;28423;60.010;30.406;2022-08-14T06:51:43;6.20;;;3.17;;
42768;SDS011;28423;60.010;30.406;2022-08-14T06:54:11;4.93;;;2.83;;
42768;SDS011;28423;60.010;30.406;2022-08-14T06:56:37;8.68;;;3.20;;
42768;SDS011;28423;60.010;30.406;2022-08-14T06:59:04;7.40;;;2.75;;
42768;SDS011;28423;60.010;30.406;2022-08-14T07:01:29;7.85;;;2.75;;
42768;SDS011;28423;60.010;30.406;2022-08-14T07:04:14;4.45;;;3.28;;
42768;SDS011;28423;60.010;30.406;2022-08-14T07:06:57;4.60;;;2.58;;
42768;SDS011;28423;60.010;30.406;2022-08-14T07:09:23;7.40;;;3.20;;
42768;SDS011;28423;60.010;30.406;2022-08-14T07:11:49;8.52;;;2.60;;
42768;SDS011;28423;60.010;30.406;2022-08-14T07:14:15;6.43;;;2.47;;
42768;SDS011;28423;60.010;30.406;2022-08-14T07:16:41;3.63;;;2.38;;
42768;SDS011;28423;60.010;30.406;2022-08-14T07:19:07;3.25;;;1.95;;
42768;SDS011;28423;60.010;30.406;2022-08-14T07:21:34;3.78;;;2.35;;
42768;SDS011;28423;60.010;30.406;2022-08-14T07:24:01;5.47;;;2.00;;
42768;SDS011;28423;60.010;30.406;2022-08-14T07:26:27;4.60;;;2.33;;
42768;SDS011;28423;60.010;30.406;2022-08-14T07:28:52;4.18;;;2.17;;
42768;SDS011;28423;60.010;30.406;2022-08-14T07:31:18;2.83;;;1.88;;
42768;SDS011;28423;60.010;30.406;2022-08-14T07:33:44;3.42;;;2.20;;
42768;SDS011;28423;60.010;30.406;2022-08-14T07:36:13;4.35;;;2.00;;
42768;SDS011;28423;60.010;30.406;2022-08-14T07:38:39;3.92;;;2.20;;
42768;SDS011;28423;60.010;30.406;2022-08-14T07:41:06;2.72;;;1.90;;
42768;SDS011;28423;60.010;30.406;2022-08-14T07:43:33;4.28;;;2.20;;
42768;SDS011;28423;60.010;30.406;2022-08-14T07:45:59;3.72;;;2.03;;
42768;SDS011;28423;60.010;30.406;2022-08-14T07:48:25;4.07;;;1.92;;
42768;SDS011;28423;60.010;30.406;2022-08-14T07:50:51;3.30;;;1.83;;
42768;SDS011;28423;60.010;30.406;2022-08-14T07:53:17;5.05;;;2.17;;
42768;SDS011;28423;60.010;30.406;2022-08-14T07:55:43;3.22;;;2.03;;
42768;SDS011;28423;60.010;30.406;2022-08-14T07:58:11;3.33;;;1.90;;
42768;SDS011;28423;60.010;30.406;2022-08-14T08:00:37;3.63;;;2.70;;
42768;SDS011;28423;60.010;30.406;2022-08-14T08:03:04;4.00;;;2.05;;
42768;SDS011;28423;60.010;30.406;2022-08-14T08:05:33;2.83;;;2.05;;
42768;SDS011;28423;60.010;30.406;2022-08-14T08:07:58;3.60;;;1.95;;
42768;SDS011;28423;60.010;30.406;2022-08-14T08:10:25;3.88;;;1.92;;
42768;SDS011;28423;60.010;30.406;2022-08-14T08:15:28;4.90;;;1.90;;
42768;SDS011;28423;60.010;30.406;2022-08-14T08:17:55;3.90;;;2.08;;
42768;SDS011;28423;60.010;30.406;2022-08-14T08:20:22;3.65;;;1.60;;
42768;SDS011;28423;60.010;30.406;2022-08-14T08:22:51;4.88;;;1.70;;
42768;SDS011;28423;60.010;30.406;2022-08-14T08:25:23;3.65;;;2.00;;
42768;SDS011;28423;60.010;30.406;2022-08-14T08:28:00;2.67;;;1.60;;
42768;SDS011;28423;60.010;30.406;2022-08-14T08:30:28;3.50;;;2.47;;
42768;SDS011;28423;60.010;30.406;2022-08-14T08:32:56;3.75;;;1.75;;
42768;SDS011;28423;60.010;30.406;2022-08-14T08:35:23;3.65;;;1.73;;
42768;SDS011;28423;60.010;30.406;2022-08-14T08:37:50;2.08;;;1.60;;
42768;SDS011;28423;60.010;30.406;2022-08-14T08:40:24;3.72;;;1.70;;
42768;SDS011;28423;60.010;30.406;2022-08-14T08:42:52;3.78;;;1.98;;
42768;SDS011;28423;60.010;30.406;2022-08-14T08:45:18;1.80;;;1.20;;
42768;SDS011;28423;60.010;30.406;2022-08-14T08:47:45;2.80;;;1.70;;
42768;SDS011;28423;60.010;30.406;2022-08-14T08:50:25;3.47;;;1.20;;
42768;SDS011;28423;60.010;30.406;2022-08-14T08:52:56;4.18;;;1.88;;
42768;SDS011;28423;60.010;30.406;2022-08-14T08:55:27;6.18;;;3.55;;
42768;SDS011;28423;60.010;30.406;2022-08-14T08:57:55;2.40;;;1.50;;
42768;SDS011;28423;60.010;30.406;2022-08-14T09:00:25;4.07;;;1.77;;
42768;SDS011;28423;60.010;30.406;2022-08-14T09:02:53;2.05;;;1.42;;
42768;SDS011;28423;60.010;30.406;2022-08-14T09:05:20;4.10;;;1.75;;
42768;SDS011;28423;60.010;30.406;2022-08-14T09:07:46;3.15;;;1.73;;
42768;SDS011;28423;60.010;30.406;2022-08-14T09:10:12;4.00;;;2.50;;
42768;SDS011;28423;60.010;30.406;2022-08-14T09:12:37;4.60;;;2.97;;
42768;SDS011;28423;60.010;30.406;2022-08-14T09:15:04;2.78;;;1.90;;
42768;SDS011;28423;60.010;30.406;2022-08-14T09:17:31;3.67;;;1.90;;
42768;SDS011;28423;60.010;30.406;2022-08-14T09:19:57;3.35;;;2.45;;
42768;SDS011;28423;60.010;30.406;2022-08-14T09:22:23;3.20;;;1.60;;
42768;SDS011;28423;60.010;30.406;2022-08-14T09:24:49;2.95;;;1.77;;
42768;SDS011;28423;60.010;30.406;2022-08-14T09:27:15;3.50;;;2.35;;
42768;SDS011;28423;60.010;30.406;2022-08-14T09:29:41;6.47;;;2.00;;
42768;SDS011;28423;60.010;30.406;2022-08-14T09:32:07;4.13;;;2.85;;
42768;SDS011;28423;60.010;30.406;2022-08-14T09:34:52;2.33;;;1.67;;
42768;SDS011;28423;60.010;30.406;2022-08-14T09:42:42;3.17;;;1.60;;
42768;SDS011;28423;60.010;30.406;2022-08-14T09:52:49;2.42;;;1.33;;
42768;SDS011;28423;60.010;30.406;2022-08-14T09:55:17;2.35;;;1.50;;
42768;SDS011;28423;60.010;30.406;2022-08-14T09:57:43;3.10;;;1.50;;
42768;SDS011;28423;60.010;30.406;2022-08-14T10:00:11;2.00;;;1.45;;
42768;SDS011;28423;60.010;30.406;2022-08-14T10:02:38;2.22;;;1.70;;
42768;SDS011;28423;60.010;30.406;2022-08-14T10:05:25;4.70;;;1.63;;
42768;SDS011;28423;60.010;30.406;2022-08-14T10:07:53;2.38;;;1.40;;
42768;SDS011;28423;60.010;30.406;2022-08-14T10:10:35;2.25;;;1.48;;
42768;SDS011;28423;60.010;30.406;2022-08-14T10:13:02;3.13;;;1.60;;
42768;SDS011;28423;60.010;30.406;2022-08-14T10:15:31;8.70;;;5.30;;
42768;SDS011;28423;60.010;30.406;2022-08-14T10:20:34;3.28;;;1.77;;
42768;SDS011;28423;60.010;30.406;2022-08-14T10:23:18;3.88;;;1.73;;
42768;SDS011;28423;60.010;30.406;2022-08-14T10:25:47;3.30;;;1.67;;
42768;SDS011;28423;60.010;30.406;2022-08-14T10:28:17;3.03;;;1.95;;
42768;SDS011;28423;60.010;30.406;2022-08-14T10:30:45;3.58;;;1.85;;
42768;SDS011;28423;60.010;30.406;2022-08-14T10:33:28;3.67;;;1.40;;
42768;SDS011;28423;60.010;30.406;2022-08-14T10:35:56;2.17;;;1.30;;
42768;SDS011;28423;60.010;30.406;2022-08-14T10:38:32;4.65;;;1.63;;
42768;SDS011;28423;60.010;30.406;2022-08-14T10:41:11;3.05;;;1.50;;
42768;SDS011;28423;60.010;30.406;2022-08-14T10:43:38;2.80;;;1.58;;
42768;SDS011;28423;60.010;30.406;2022-08-14T10:46:13;3.70;;;2.13;;
42768;SDS011;28423;60.010;30.406;2022-08-14T10:48:40;3.00;;;1.67;;
42768;SDS011;28423;60.010;30.406;2022-08-14T10:51:06;3.50;;;1.73;;
42768;SDS011;28423;60.010;30.406;2022-08-14T10:53:33;3.58;;;1.73;;
42768;SDS011;28423;60.010;30.406;2022-08-14T10:56:02;3.40;;;1.92;;
42768;SDS011;28423;60.010;30.406;2022-08-14T10:58:35;3.40;;;1.83;;
42768;SDS011;28423;60.010;30.406;2022-08-14T11:01:01;5.70;;;1.88;;
42768;SDS011;28423;60.010;30.406;2022-08-14T11:03:36;2.92;;;1.52;;
42768;SDS011;28423;60.010;30.406;2022-08-14T11:06:10;3.42;;;1.58;;
42768;SDS011;28423;60.010;30.406;2022-08-14T11:08:44;3.08;;;2.00;;
42768;SDS011;28423;60.010;30.406;2022-08-14T11:11:11;2.88;;;1.83;;
42768;SDS011;28423;60.010;30.406;2022-08-14T11:13:39;3.47;;;2.10;;
42768;SDS011;28423;60.010;30.406;2022-08-14T11:16:08;3.15;;;1.40;;
42768;SDS011;28423;60.010;30.406;2022-08-14T11:18:35;3.13;;;2.30;;
42768;SDS011;28423;60.010;30.406;2022-08-14T11:21:01;3.55;;;1.70;;
42768;SDS011;28423;60.010;30.406;2022-08-14T11:23:34;3.45;;;1.73;;
42768;SDS011;28423;60.010;30.406;2022-08-14T11:26:03;7.15;;;1.42;;
42768;SDS011;28423;60.010;30.406;2022-08-14T11:28:36;3.70;;;1.63;;
42768;SDS011;28423;60.010;30.406;2022-08-14T11:31:09;3.17;;;1.75;;
42768;SDS011;28423;60.010;30.406;2022-08-14T11:33:38;3.10;;;1.63;;
42768;SDS011;28423;60.010;30.406;2022-08-14T11:36:06;3.22;;;1.63;;
42768;SDS011;28423;60.010;30.406;2022-08-14T11:38:43;3.30;;;1.90;;
42768;SDS011;28423;60.010;30.406;2022-08-14T11:41:11;3.47;;;1.65;;
42768;SDS011;28423;60.010;30.406;2022-08-14T11:43:40;2.60;;;1.50;;
42768;SDS011;28423;60.010;30.406;2022-08-14T11:46:10;2.75;;;1.35;;
42768;SDS011;28423;60.010;30.406;2022-08-14T11:48:52;3.08;;;1.60;;
42768;SDS011;28423;60.010;30.406;2022-08-14T11:51:20;3.13;;;1.58;;
42768;SDS011;28423;60.010;30.406;2022-08-14T11:56:18;2.70;;;1.70;;
42768;SDS011;28423;60.010;30.406;2022-08-14T11:58:48;4.85;;;1.80;;
42768;SDS011;28423;60.010;30.406;2022-08-14T12:01:17;4.95;;;1.55;;
42768;SDS011;28423;60.010;30.406;2022-08-14T12:03:51;2.97;;;1.77;;
42768;SDS011;28423;60.010;30.406;2022-08-14T12:06:17;4.28;;;2.15;;
42768;SDS011;28423;60.010;30.406;2022-08-14T12:08:44;4.68;;;1.70;;
42768;SDS011;28423;60.010;30.406;2022-08-14T12:11:12;4.90;;;2.00;;
42768;SDS011;28423;60.010;30.406;2022-08-14T12:13:39;2.08;;;1.50;;
42768;SDS011;28423;60.010;30.406;2022-08-14T12:16:06;2.88;;;1.77;;
42768;SDS011;28423;60.010;30.406;2022-08-14T12:18:34;2.75;;;1.75;;
42768;SDS011;28423;60.010;30.406;2022-08-14T12:21:21;2.95;;;1.67;;
42768;SDS011;28423;60.010;30.406;2022-08-14T12:24:07;3.00;;;1.92;;
42768;SDS011;28423;60.010;30.406;2022-08-14T12:26:33;3.22;;;2.22;;
42768;SDS011;28423;60.010;30.406;2022-08-14T12:29:10;3.90;;;1.40;;
42768;SDS011;28423;60.010;30.406;2022-08-14T12:31:38;4.32;;;2.10;;
42768;SDS011;28423;60.010;30.406;2022-08-14T12:34:14;5.60;;;1.98;;
42768;SDS011;28423;60.010;30.406;2022-08-14T12:36:40;5.75;;;1.83;;
42768;SDS011;28423;60.010;30.406;2022-08-14T12:39:16;2.50;;;1.50;;
42768;SDS011;28423;60.010;30.406;2022-08-14T12:41:51;3.70;;;1.67;;
42768;SDS011;28423;60.010;30.406;2022-08-14T12:44:37;2.63;;;1.70;;
42768;SDS011;28423;60.010;30.406;2022-08-14T12:47:07;4.43;;;1.90;;
42768;SDS011;28423;60.010;30.406;2022-08-14T12:49:36;2.67;;;1.60;;
42768;SDS011;28423;60.010;30.406;2022-08-14T12:52:03;2.95;;;1.90;;
42768;SDS011;28423;60.010;30.406;2022-08-14T12:54:31;4.00;;;2.63;;
42768;SDS011;28423;60.010;30.406;2022-08-14T12:57:07;2.10;;;1.60;;
42768;SDS011;28423;60.010;30.406;2022-08-14T12:59:34;4.43;;;2.15;;
42768;SDS011;28423;60.010;30.406;2022-08-14T13:02:00;2.65;;;1.52;;
42768;SDS011;28423;60.010;30.406;2022-08-14T13:04:26;2.28;;;1.40;;
42768;SDS011;28423;60.010;30.406;2022-08-14T13:06:59;6.90;;;1.80;;
42768;SDS011;28423;60.010;30.406;2022-08-14T13:09:33;2.65;;;1.58;;
42768;SDS011;28423;60.010;30.406;2022-08-14T13:12:00;2.67;;;1.60;;
42768;SDS011;28423;60.010;30.406;2022-08-14T13:14:27;6.45;;;1.63;;
42768;SDS011;28423;60.010;30.406;2022-08-14T13:16:55;3.15;;;1.80;;
42768;SDS011;28423;60.010;30.406;2022-08-14T13:19:22;3.85;;;2.05;;
42768;SDS011;28423;60.010;30.406;2022-08-14T13:21:49;3.72;;;1.50;;
42768;SDS011;28423;60.010;30.406;2022-08-14T13:24:17;2.28;;;1.25;;
42768;SDS011;28423;60.010;30.406;2022-08-14T13:26:45;5.63;;;1.90;;
42768;SDS011;28423;60.010;30.406;2022-08-14T13:29:15;2.95;;;1.70;;
42768;SDS011;28423;60.010;30.406;2022-08-14T13:31:43;3.97;;;1.70;;
42768;SDS011;28423;60.010;30.406;2022-08-14T13:34:21;4.30;;;1.90;;
42768;SDS011;28423;60.010;30.406;2022-08-14T13:36:49;5.38;;;2.70;;
42768;SDS011;28423;60.010;30.406;2022-08-14T13:39:15;2.47;;;1.75;;
42768;SDS011;28423;60.010;30.406;2022-08-14T13:41:42;1.98;;;1.20;;
42768;SDS011;28423;60.010;30.406;2022-08-14T13:44:09;2.72;;;1.90;;
42768;SDS011;28423;60.010;30.406;2022-08-14T13:46:35;2.38;;;1.50;;
42768;SDS011;28423;60.010;30.406;2022-08-14T13:49:01;3.65;;;1.52;;
42768;SDS011;28423;60.010;30.406;2022-08-14T13:51:27;3.55;;;1.83;;
42768;SDS011;28423;60.010;30.406;2022-08-14T13:53:56;4.03;;;1.65;;
42768;SDS011;28423;60.010;30.406;2022-08-14T13:56:22;2.35;;;1.50;;
42768;SDS011;28423;60.010;30.406;2022-08-14T13:58:52;1.92;;;1.33;;
42768;SDS011;28423;60.010;30.406;2022-08-14T14:01:22;2.88;;;1.50;;
42768;SDS011;28423;60.010;30.406;2022-08-14T14:03:50;2.83;;;1.40;;
42768;SDS011;28423;60.010;30.406;2022-08-14T14:06:19;3.15;;;1.50;;
42768;SDS011;28423;60.010;30.406;2022-08-14T14:08:46;4.43;;;1.50;;
42768;SDS011;28423;60.010;30.406;2022-08-14T14:11:17;2.60;;;1.52;;
42768;SDS011;28423;60.010;30.406;2022-08-14T14:13:50;2.72;;;1.67;;
42768;SDS011;28423;60.010;30.406;2022-08-14T14:16:16;2.78;;;1.55;;
42768;SDS011;28423;60.010;30.406;2022-08-14T14:18:46;3.80;;;1.70;;
42768;SDS011;28423;60.010;30.406;2022-08-14T14:21:19;5.32;;;1.65;;
42768;SDS011;28423;60.010;30.406;2022-08-14T14:23:46;3.30;;;1.52;;
42768;SDS011;28423;60.010;30.406;2022-08-14T14:26:12;3.10;;;1.73;;
42768;SDS011;28423;60.010;30.406;2022-08-14T14:28:40;1.98;;;1.38;;
42768;SDS011;28423;60.010;30.406;2022-08-14T14:31:07;2.97;;;1.45;;
42768;SDS011;28423;60.010;30.406;2022-08-14T14:33:33;5.00;;;2.20;;
42768;SDS011;28423;60.010;30.406;2022-08-14T14:36:00;1.90;;;1.40;;
42768;SDS011;28423;60.010;30.406;2022-08-14T14:38:27;3.40;;;1.80;;
42768;SDS011;28423;60.010;30.406;2022-08-14T14:40:56;3.55;;;1.75;;
42768;SDS011;28423;60.010;30.406;2022-08-14T14:43:22;2.88;;;1.55;;
42768;SDS011;28423;60.010;30.406;2022-08-14T14:45:53;3.22;;;1.38;;
42768;SDS011;28423;60.010;30.406;2022-08-14T14:48:19;4.43;;;1.42;;
42768;SDS011;28423;60.010;30.406;2022-08-14T14:50:44;2.50;;;1.27;;
42768;SDS011;28423;60.010;30.406;2022-08-14T14:53:10;3.63;;;1.27;;
42768;SDS011;28423;60.010;30.406;2022-08-14T14:55:37;3.50;;;1.40;;
42768;SDS011;28423;60.010;30.406;2022-08-14T14:58:06;2.60;;;1.20;;
42768;SDS011;28423;60.010;30.406;2022-08-14T15:00:32;2.33;;;1.52;;
42768;SDS011;28423;60.010;30.406;2022-08-14T15:02:58;3.78;;;1.75;;